Time;durP1;ratioP1;P1;durP2;ratioP2;P2;SDS_P1;SDS_P2;PMS_P1;PMS_P2;Temp;Humidity;BMP_temperature;BMP_pressure;BME280_temperature;BME280_humidity;BME280_pressure;Samples;Min_cycle;Max_cycle;Signal;HPM_P1;HPM_P2
2023/07/03 00:00:45;;;;;;;10.45;3.50;;;15.00;99.90;;;;;;5114776;28;20040;-24
2023/07/03 00:03:14;;;;;;;15.60;4.80;;;15.00;99.90;;;;;;5119517;27;20051;-24
2023/07/03 00:05:44;;;;;;;14.73;4.97;;;15.00;99.90;;;;;;5134660;27;20130;-24
2023/07/03 00:08:15;;;;;;;12.82;3.92;;;15.00;99.90;;;;;;5134718;28;20054;-24
2023/07/03 00:10:41;;;;;;;13.32;3.80;;;15.00;1.00;;;;;;5134642;28;20043;-24
2023/07/03 00:13:08;;;;;;;9.27;3.10;;;15.10;99.90;;;;;;5134587;28;20058;-24
2023/07/03 00:15:34;;;;;;;12.25;3.80;;;15.10;99.90;;;;;;5134546;28;20038;-24
2023/07/03 00:18:00;;;;;;;19.25;4.45;;;15.10;1.00;;;;;;5134560;28;20051;-24
2023/07/03 00:20:27;;;;;;;10.90;3.65;;;15.10;1.00;;;;;;5134843;28;20047;-24
2023/07/03 00:22:54;;;;;;;14.35;4.43;;;15.00;99.90;;;;;;5116441;28;20481;-24
2023/07/03 00:25:21;;;;;;;15.23;3.90;;;15.10;99.90;;;;;;5116198;28;20073;-24
2023/07/03 00:27:47;;;;;;;13.70;3.83;;;15.10;99.90;;;;;;5116396;28;20039;-24
2023/07/03 00:30:14;;;;;;;22.80;5.00;;;15.10;99.90;;;;;;5134469;28;20126;-25
2023/07/03 00:32:40;;;;;;;14.20;3.00;;;15.10;1.00;;;;;;5134061;28;20553;-24
2023/07/03 00:35:06;;;;;;;15.63;4.75;;;15.00;1.00;;;;;;5134319;28;20039;-24
2023/07/03 00:37:33;;;;;;;13.40;4.18;;;15.00;99.90;;;;;;5116842;28;20404;-24
2023/07/03 00:39:59;;;;;;;16.38;3.80;;;15.10;99.90;;;;;;5134933;28;20039;-24
2023/07/03 00:42:26;;;;;;;9.70;3.25;;;15.10;99.90;;;;;;5116221;28;20039;-24
2023/07/03 00:44:52;;;;;;;13.57;3.78;;;15.20;99.90;;;;;;5134875;28;20047;-24
2023/07/03 00:47:19;;;;;;;10.77;3.25;;;15.20;99.90;;;;;;5134284;28;20050;-24
2023/07/03 00:49:48;;;;;;;13.52;3.25;;;15.10;99.90;;;;;;5134302;28;20043;-24
2023/07/03 00:52:15;;;;;;;14.45;3.92;;;15.10;99.90;;;;;;5134217;28;20385;-24
2023/07/03 00:54:41;;;;;;;17.00;4.28;;;15.00;99.90;;;;;;5115815;28;20505;-24
2023/07/03 00:57:11;;;;;;;14.27;4.70;;;15.00;99.90;;;;;;5134222;28;20126;-24
2023/07/03 00:59:37;;;;;;;11.80;3.58;;;15.00;99.90;;;;;;5134272;28;20129;-24
2023/07/03 01:02:13;;;;;;;10.85;3.45;;;15.10;99.90;;;;;;5134164;28;20043;-24
2023/07/03 01:05:00;;;;;;;12.18;3.67;;;15.10;99.90;;;;;;5137140;27;20091;-24
2023/07/03 01:07:34;;;;;;;16.23;3.28;;;15.10;99.90;;;;;;5138020;27;20092;-24
2023/07/03 01:10:14;;;;;;;12.80;3.25;;;15.00;99.90;;;;;;5138842;27;20075;-24
2023/07/03 01:12:44;;;;;;;16.60;4.25;;;15.00;99.90;;;;;;5138193;27;20047;-24
2023/07/03 01:15:17;;;;;;;14.57;3.22;;;15.00;99.90;;;;;;5137799;27;20079;-24
2023/07/03 01:17:47;;;;;;;13.00;3.83;;;15.00;99.90;;;;;;5119999;27;20490;-24
2023/07/03 01:20:17;;;;;;;12.07;3.65;;;15.00;99.90;;;;;;5119614;27;20051;-24
2023/07/03 01:23:03;;;;;;;12.82;3.50;;;15.00;99.90;;;;;;5119316;27;20046;-24
2023/07/03 01:25:31;;;;;;;15.32;3.67;;;15.00;99.90;;;;;;5137647;27;20103;-24
2023/07/03 01:27:58;;;;;;;10.38;3.50;;;15.10;99.90;;;;;;5137626;27;20086;-24
2023/07/03 01:30:27;;;;;;;15.40;3.08;;;15.10;99.90;;;;;;5119333;27;20058;-24
2023/07/03 01:32:53;;;;;;;10.75;2.50;;;15.10;99.90;;;;;;5119324;27;20130;-24
2023/07/03 01:35:21;;;;;;;12.50;2.72;;;15.10;99.90;;;;;;5137944;27;20047;-24
2023/07/03 01:37:50;;;;;;;11.93;2.60;;;15.10;99.90;;;;;;5137358;27;20480;-24
2023/07/03 01:40:20;;;;;;;10.32;2.30;;;15.10;99.90;;;;;;5137893;27;20047;-24
2023/07/03 01:42:46;;;;;;;10.35;2.58;;;15.10;48.90;;;;;;5137817;27;20043;-24
2023/07/03 01:45:13;;;;;;;10.70;2.45;;;15.10;51.00;;;;;;5118886;27;20484;-24
2023/07/03 01:47:39;;;;;;;11.43;2.67;;;15.10;1.00;;;;;;5137467;27;20082;-24
2023/07/03 01:50:07;;;;;;;10.93;3.42;;;15.00;1.00;;;;;;5137153;27;20083;-24
2023/07/03 01:52:39;;;;;;;11.68;2.65;;;14.90;1.00;;;;;;5137105;27;20047;-24
2023/07/03 01:55:27;;;;;;;14.52;3.25;;;14.80;1.00;;;;;;5137080;27;20043;-24
2023/07/03 01:58:08;;;;;;;7.20;2.03;;;14.70;1.00;;;;;;5137771;27;20051;-24
2023/07/03 02:01:01;;;;;;;11.15;3.55;;;14.60;1.00;;;;;;5137795;27;20043;-24
2023/07/03 02:03:52;;;;;;;7.30;2.28;;;14.40;1.00;;;;;;5137563;27;20045;-24
2023/07/03 02:06:25;;;;;;;13.07;2.45;;;14.30;1.00;;;;;;5136829;27;20104;-24
2023/07/03 02:08:51;;;;;;;;;;;14.30;1.00;;;;;;5137821;27;20050;-24
2023/07/03 02:11:20;;;;;;;8.20;1.92;;;14.10;1.00;;;;;;5136760;27;20303;-24
2023/07/03 02:13:47;;;;;;;11.15;2.10;;;14.10;38.60;;;;;;5118610;27;20114;-24
2023/07/03 02:16:15;;;;;;;13.60;2.53;;;14.00;59.50;;;;;;5117680;27;20046;-24
2023/07/03 02:18:42;;;;;;;15.27;3.15;;;13.90;98.50;;;;;;5136598;27;20086;-24
2023/07/03 02:21:08;;;;;;;11.18;2.25;;;13.90;99.90;;;;;;5137167;27;20530;-24
2023/07/03 02:23:34;;;;;;;12.57;2.15;;;13.90;99.90;;;;;;5137084;27;20047;-24
2023/07/03 02:26:00;;;;;;;10.82;2.53;;;13.90;34.80;;;;;;5136701;27;20040;-24
2023/07/03 02:28:26;;;;;;;8.30;2.20;;;13.90;1.00;;;;;;5136329;27;20452;-25
2023/07/03 02:30:51;;;;;;;13.35;2.33;;;13.90;1.00;;;;;;5136199;27;20126;-24
2023/07/03 02:33:17;;;;;;;11.23;2.72;;;14.00;1.00;;;;;;5136293;27;20050;-24
2023/07/03 02:35:43;;;;;;;11.23;2.17;;;13.90;1.00;;;;;;5136979;27;20368;-24
2023/07/03 02:38:09;;;;;;;12.20;2.20;;;14.00;1.00;;;;;;5136181;27;20481;-24
2023/07/03 02:40:36;;;;;;;9.65;2.00;;;14.00;1.00;;;;;;5136169;27;20131;-24
2023/07/03 02:43:04;;;;;;;8.82;1.75;;;13.90;1.00;;;;;;5117847;27;20051;-24
2023/07/03 02:45:38;;;;;;;9.07;1.92;;;13.90;1.00;;;;;;5136034;27;20076;-24
2023/07/03 02:48:06;;;;;;;;;;;13.80;1.00;;;;;;5136462;27;20047;-25
2023/07/03 02:50:32;;;;;;;8.50;1.85;;;13.80;99.90;;;;;;5136203;27;20022;-24
2023/07/03 02:52:57;;;;;;;10.25;1.60;;;13.80;1.00;;;;;;5135912;27;20135;-24
2023/07/03 02:55:25;;;;;;;7.75;1.70;;;13.80;1.00;;;;;;5135837;27;20031;-24
2023/07/03 02:57:53;;;;;;;10.05;1.92;;;13.80;99.90;;;;;;5135816;27;20039;-24
2023/07/03 03:00:22;;;;;;;7.90;2.17;;;13.90;99.90;;;;;;5135768;27;20047;-24
2023/07/03 03:02:48;;;;;;;11.02;1.88;;;13.90;99.90;;;;;;5135712;27;20043;-25
2023/07/03 03:05:14;;;;;;;7.90;1.85;;;13.80;99.90;;;;;;5136481;27;20043;-24
2023/07/03 03:07:40;;;;;;;11.48;1.83;;;13.80;99.90;;;;;;5136400;27;20460;-24
2023/07/03 03:10:07;;;;;;;11.98;2.47;;;13.80;99.90;;;;;;5136127;27;20392;-24
2023/07/03 03:12:32;;;;;;;15.75;3.88;;;13.70;99.90;;;;;;5100433;27;20059;-24
2023/07/03 03:14:58;;;;;;;12.07;2.45;;;13.80;99.90;;;;;;5135385;27;20043;-24
2023/07/03 03:17:24;;;;;;;12.45;2.05;;;13.80;99.90;;;;;;5135458;27;20047;-24
2023/07/03 03:19:50;;;;;;;10.48;2.25;;;13.80;99.90;;;;;;5135401;27;20473;-24
2023/07/03 03:22:16;;;;;;;7.57;1.90;;;13.70;99.90;;;;;;5135344;27;20054;-24
2023/07/03 03:24:42;;;;;;;10.27;1.80;;;13.70;99.90;;;;;;5135877;27;20039;-26
2023/07/03 03:27:08;;;;;;;11.63;2.20;;;13.70;99.90;;;;;;5100473;27;20137;-24
2023/07/03 03:29:35;;;;;;;11.13;3.70;;;13.60;1.00;;;;;;5135236;27;20065;-24
2023/07/03 03:32:02;;;;;;;13.75;2.55;;;13.60;1.00;;;;;;5117575;27;20043;-24
2023/07/03 03:34:28;;;;;;;9.88;1.80;;;13.50;1.00;;;;;;5135118;27;20043;-24
2023/07/03 03:36:54;;;;;;;12.25;2.25;;;13.60;1.00;;;;;;5135121;27;20476;-24
2023/07/03 03:39:20;;;;;;;10.02;1.85;;;13.60;1.00;;;;;;5134752;27;20492;-24
2023/07/03 03:41:46;;;;;;;14.32;2.63;;;13.50;1.00;;;;;;5117433;27;20047;-24
2023/07/03 03:44:11;;;;;;;10.57;2.63;;;13.50;17.70;;;;;;5134993;27;20047;-24
2023/07/03 03:46:37;;;;;;;11.23;2.58;;;13.40;49.40;;;;;;5134624;27;20050;-24
2023/07/03 03:49:03;;;;;;;7.50;1.70;;;13.50;86.90;;;;;;5135753;27;20122;-24
2023/07/03 03:51:28;;;;;;;10.35;2.05;;;13.40;99.90;;;;;;5116487;27;20406;-24
2023/07/03 03:53:54;;;;;;;13.40;2.15;;;13.40;99.90;;;;;;5135129;27;20075;-24
2023/07/03 03:56:20;;;;;;;14.32;2.20;;;13.40;99.90;;;;;;5135041;27;20122;-24
2023/07/03 03:58:46;;;;;;;12.32;3.05;;;13.30;99.90;;;;;;5134745;27;20480;-24
2023/07/03 04:01:13;;;;;;;9.05;2.20;;;13.30;99.90;;;;;;5134776;27;20103;-24
2023/07/03 04:03:39;;;;;;;14.23;2.13;;;13.30;99.90;;;;;;5134831;27;20477;-25
2023/07/03 04:06:05;;;;;;;19.17;2.83;;;13.30;99.90;;;;;;5135949;27;20057;-24
2023/07/03 04:08:30;;;;;;;13.55;2.58;;;13.30;99.90;;;;;;5134698;28;20079;-24
2023/07/03 04:10:56;;;;;;;9.88;1.70;;;13.30;99.90;;;;;;5134698;28;20043;-24
2023/07/03 04:13:22;;;;;;;9.02;2.08;;;13.40;99.90;;;;;;5134588;28;20087;-24
2023/07/03 04:16:00;;;;;;;10.18;2.47;;;13.50;99.90;;;;;;5134187;28;20043;-24
2023/07/03 04:18:26;;;;;;;11.68;2.55;;;13.50;99.90;;;;;;5135482;28;20405;-24
2023/07/03 04:20:52;;;;;;;12.48;2.05;;;13.60;99.90;;;;;;5134539;28;20458;-24
2023/07/03 04:23:18;;;;;;;11.55;2.70;;;13.60;99.90;;;;;;5135074;28;20043;-24
2023/07/03 04:25:44;;;;;;;8.45;2.13;;;13.70;99.90;;;;;;5116650;28;20099;-25
2023/07/03 04:28:11;;;;;;;9.32;1.70;;;13.90;99.90;;;;;;5116117;28;20093;-24
2023/07/03 04:30:37;;;;;;;13.00;2.83;;;13.90;99.90;;;;;;5117096;28;20090;-24
2023/07/03 04:33:03;;;;;;;14.95;2.20;;;13.90;99.90;;;;;;5134960;28;20087;-24
2023/07/03 04:35:28;;;;;;;10.75;1.63;;;14.00;99.90;;;;;;5134640;28;20126;-24
2023/07/03 04:37:54;;;;;;;12.45;2.88;;;14.00;1.00;;;;;;5135390;27;20043;-24
2023/07/03 04:40:20;;;;;;;11.95;2.75;;;14.00;1.00;;;;;;5120422;27;20046;-24
2023/07/03 04:42:46;;;;;;;14.00;3.47;;;14.00;99.90;;;;;;5138445;27;20046;-24
2023/07/03 04:45:13;;;;;;;13.25;2.60;;;14.00;1.00;;;;;;5120612;27;20079;-24
2023/07/03 04:47:39;;;;;;;11.95;2.45;;;14.10;1.00;;;;;;5121116;27;20053;-24
2023/07/03 04:50:11;;;;;;;8.18;2.72;;;14.20;1.00;;;;;;5138306;27;20035;-24
2023/07/03 04:52:38;;;;;;;9.25;2.00;;;14.30;99.90;;;;;;5121028;27;20039;-24
2023/07/03 04:55:08;;;;;;;12.07;2.22;;;14.40;99.90;;;;;;5138120;27;20043;-24
2023/07/03 04:57:38;;;;;;;19.15;2.97;;;14.40;99.90;;;;;;5120779;27;20047;-24
2023/07/03 05:00:16;;;;;;;10.23;1.88;;;14.50;99.90;;;;;;5138438;27;20548;-24
2023/07/03 05:02:51;;;;;;;8.90;1.70;;;14.50;99.90;;;;;;5138114;27;20488;-25
2023/07/03 05:05:18;;;;;;;8.70;1.42;;;14.60;99.90;;;;;;5137930;27;20057;-24
2023/07/03 05:07:45;;;;;;;12.27;1.45;;;14.80;99.90;;;;;;5119784;27;20058;-24
2023/07/03 05:10:13;;;;;;;10.55;1.60;;;14.90;99.90;;;;;;5138549;27;20047;-24
2023/07/03 05:12:39;;;;;;;11.18;2.70;;;14.90;99.90;;;;;;5138424;27;20051;-24
2023/07/03 05:15:09;;;;;;;11.30;1.90;;;15.10;1.00;;;;;;5137759;27;20039;-24
2023/07/03 05:17:38;;;;;;;13.05;1.77;;;15.30;99.90;;;;;;5138348;27;20133;-25
2023/07/03 05:20:10;;;;;;;13.50;2.63;;;15.30;99.90;;;;;;5138291;27;20043;-24
2023/07/03 05:22:41;;;;;;;11.70;1.73;;;15.40;99.90;;;;;;5120005;27;20035;-24
2023/07/03 05:25:10;;;;;;;7.35;1.50;;;15.90;99.90;;;;;;5137650;27;20121;-24
2023/07/03 05:27:36;;;;;;;10.50;2.22;;;16.00;80.60;;;;;;5137598;27;20480;-25
2023/07/03 05:30:04;;;;;;;7.78;1.38;;;15.80;99.90;;;;;;5119254;27;20055;-24
2023/07/03 05:32:30;;;;;;;10.10;1.88;;;15.50;99.90;;;;;;5119144;27;20054;-24
2023/07/03 05:34:56;;;;;;;9.70;1.77;;;15.40;99.90;;;;;;5102386;27;20480;-24
2023/07/03 05:37:22;;;;;;;9.30;1.42;;;15.20;99.90;;;;;;5119320;27;20550;-24
2023/07/03 05:39:49;;;;;;;12.25;2.13;;;15.10;1.00;;;;;;5118932;27;20420;-24
2023/07/03 05:42:18;;;;;;;7.47;1.42;;;15.10;1.00;;;;;;5137286;27;20508;-24
2023/07/03 05:44:45;;;;;;;13.70;2.97;;;15.00;1.00;;;;;;5137279;27;20134;-25
2023/07/03 05:47:14;;;;;;;8.40;2.08;;;14.80;73.60;;;;;;5102535;27;20073;-24
2023/07/03 05:49:40;;;;;;;8.18;1.85;;;14.90;99.90;;;;;;5136243;27;20084;-24
2023/07/03 05:52:06;;;;;;;9.43;1.65;;;15.50;92.00;;;;;;5137128;27;20042;-24
2023/07/03 05:54:32;;;;;;;14.10;1.80;;;16.20;99.90;;;;;;5137015;27;20146;-24
2023/07/03 05:57:09;;;;;;;13.32;2.70;;;16.60;77.70;;;;;;5137106;27;20540;-24
2023/07/03 05:59:37;;;;;;;10.60;2.13;;;17.10;99.90;;;;;;5137577;27;20047;-24
2023/07/03 06:02:06;;;;;;;11.50;2.13;;;17.60;99.90;;;;;;5136607;27;20381;-24
2023/07/03 06:04:33;;;;;;;9.80;2.30;;;18.10;1.00;;;;;;5136566;27;20492;-24
2023/07/03 06:06:59;;;;;;;8.07;1.60;;;18.20;1.00;;;;;;5118737;27;20138;-24
2023/07/03 06:09:27;;;;;;;8.18;1.50;;;18.40;99.90;;;;;;5136787;27;20047;-24
2023/07/03 06:11:53;;;;;;;11.63;1.60;;;18.10;60.50;;;;;;5136455;27;20462;-24
2023/07/03 06:14:19;;;;;;;7.60;1.70;;;17.90;1.00;;;;;;5119413;27;20481;-25
2023/07/03 06:16:47;;;;;;;9.45;1.83;;;18.10;1.00;;;;;;5137137;27;20374;-26
2023/07/03 06:19:14;;;;;;;7.55;1.48;;;18.30;2.80;;;;;;5136624;27;20074;-24
2023/07/03 06:21:43;;;;;;;14.65;2.45;;;18.10;1.10;;;;;;5136581;27;20055;-25
2023/07/03 06:24:10;;;;;;;10.77;1.80;;;17.70;1.00;;;;;;5136456;27;20472;-25
2023/07/03 06:26:38;;;;;;;8.23;1.23;;;17.60;99.90;;;;;;5136471;27;20509;-25
2023/07/03 06:29:08;;;;;;;8.10;2.17;;;17.40;99.90;;;;;;5136464;27;20047;-25
2023/07/03 06:31:34;;;;;;;8.43;1.65;;;16.90;99.90;;;;;;5118639;27;20394;-25
2023/07/03 06:34:03;;;;;;;7.53;1.35;;;16.30;99.90;;;;;;5136319;27;20047;-24
2023/07/03 06:36:31;;;;;;;3.92;1.25;;;15.80;99.90;;;;;;5136225;27;20043;-24
2023/07/03 06:38:59;;;;;;;11.95;1.30;;;15.10;99.90;;;;;;5136268;27;20047;-22
2023/07/03 06:41:30;;;;;;;11.73;2.72;;;14.50;99.90;;;;;;5117866;27;20102;-22
2023/07/03 06:43:56;;;;;;;5.57;1.45;;;14.40;1.00;;;;;;5118038;27;20043;-22
2023/07/03 06:46:23;;;;;;;7.40;1.65;;;14.40;91.30;;;;;;5136055;27;20493;-22
2023/07/03 06:48:49;;;;;;;10.05;1.30;;;14.40;99.90;;;;;;5136035;27;20043;-23
2023/07/03 06:51:15;;;;;;;13.77;2.55;;;14.50;1.00;;;;;;5136766;27;20047;-23
2023/07/03 06:53:41;;;;;;;7.95;2.08;;;14.60;1.00;;;;;;5117834;27;20481;-23
2023/07/03 06:56:08;;;;;;;5.45;1.38;;;14.70;14.30;;;;;;5118062;27;20031;-23
2023/07/03 06:58:34;;;;;;;4.97;1.70;;;15.70;13.80;;;;;;5135895;27;20054;-23
2023/07/03 07:01:14;;;;;;;9.88;1.35;;;16.50;99.90;;;;;;5135466;27;20374;-24
2023/07/03 07:03:40;;;;;;;7.93;1.33;;;16.80;99.90;;;;;;5136400;27;20084;-24
2023/07/03 07:06:21;;;;;;;7.53;1.55;;;17.50;99.90;;;;;;5117555;27;20062;-24
2023/07/03 07:08:46;;;;;;;9.02;2.33;;;17.70;1.00;;;;;;5135990;27;20047;-24
2023/07/03 07:11:15;;;;;;;7.53;1.00;;;17.50;1.00;;;;;;5135552;27;20575;-24
2023/07/03 07:13:46;;;;;;;8.32;1.10;;;17.40;99.90;;;;;;5117251;27;20078;-24
2023/07/03 07:16:23;;;;;;;5.85;1.63;;;17.60;27.60;;;;;;5135466;27;20126;-23
2023/07/03 07:18:56;;;;;;;5.80;1.10;;;16.90;1.00;;;;;;5135579;27;20039;-24
2023/07/03 07:21:23;;;;;;;8.05;1.50;;;16.10;99.90;;;;;;5135478;27;20043;-24
2023/07/03 07:23:59;;;;;;;5.20;1.40;;;15.90;1.00;;;;;;5135362;27;20176;-24
2023/07/03 07:26:30;;;;;;;5.60;0.90;;;16.30;1.00;;;;;;5135334;27;20039;-24
2023/07/03 07:28:59;;;;;;;9.43;1.30;;;16.50;1.00;;;;;;5117182;27;20473;-24
2023/07/03 07:31:28;;;;;;;7.90;1.70;;;16.60;1.00;;;;;;5135140;27;20042;-24
2023/07/03 07:33:55;;;;;;;11.00;1.52;;;16.60;1.00;;;;;;5117047;27;20043;-24
2023/07/03 07:36:27;;;;;;;12.50;2.58;;;16.50;46.00;;;;;;5134811;27;20486;-24
2023/07/03 07:38:56;;;;;;;13.32;2.10;;;16.40;1.00;;;;;;5135126;27;20473;-24
2023/07/03 07:41:24;;;;;;;7.28;0.98;;;16.50;1.00;;;;;;5116932;27;20047;-24
2023/07/03 07:43:50;;;;;;;5.57;1.58;;;16.70;1.00;;;;;;5116942;27;20047;-24
2023/07/03 07:46:17;;;;;;;7.13;1.15;;;17.10;1.00;;;;;;5135589;27;20047;-24
2023/07/03 07:48:43;;;;;;;7.28;1.30;;;17.00;99.90;;;;;;5116373;27;20595;-24
2023/07/03 07:51:11;;;;;;;6.40;1.05;;;16.80;99.90;;;;;;5116700;27;20078;-24
2023/07/03 07:53:43;;;;;;;7.85;1.85;;;17.10;42.30;;;;;;5134858;27;20043;-24
2023/07/03 07:56:10;;;;;;;6.57;2.00;;;17.20;99.90;;;;;;5117432;27;20167;-24
2023/07/03 07:58:37;;;;;;;5.03;0.90;;;17.20;99.90;;;;;;5134867;27;20084;-24
2023/07/03 08:01:03;;;;;;;9.15;1.20;;;17.70;99.90;;;;;;5135331;27;20053;-24
2023/07/03 08:03:29;;;;;;;4.97;0.95;;;17.30;37.40;;;;;;5134815;27;20100;-24
2023/07/03 08:06:07;;;;;;;3.70;0.95;;;17.40;99.90;;;;;;5134490;27;20051;-24
2023/07/03 08:08:38;;;;;;;5.38;1.02;;;17.20;1.00;;;;;;5135334;27;20058;-24
2023/07/03 08:11:06;;;;;;;3.30;0.55;;;16.60;1.00;;;;;;5135285;28;20423;-24
2023/07/03 08:13:35;;;;;;;4.03;0.80;;;16.20;99.90;;;;;;5133918;27;20047;-23
2023/07/03 08:16:01;;;;;;;3.50;0.60;;;16.20;99.90;;;;;;5134508;28;20039;-23
2023/07/03 08:18:26;;;;;;;9.60;1.70;;;16.80;99.90;;;;;;5134569;28;20047;-23
2023/07/03 08:20:53;;;;;;;4.28;0.82;;;17.50;99.90;;;;;;5116718;28;20138;-23
2023/07/03 08:23:19;;;;;;;4.50;0.77;;;18.00;99.90;;;;;;5134848;28;20473;-23
2023/07/03 08:25:50;;;;;;;4.18;0.90;;;17.70;99.90;;;;;;5134748;28;20485;-24
2023/07/03 08:28:16;;;;;;;4.47;0.85;;;17.80;1.00;;;;;;5135178;28;20080;-24
2023/07/03 08:30:43;;;;;;;3.83;0.88;;;17.60;18.10;;;;;;5134390;28;20573;-24
2023/07/03 08:33:09;;;;;;;6.10;1.30;;;17.40;99.90;;;;;;5134470;28;20482;-24
2023/07/03 08:35:37;;;;;;;5.35;0.98;;;17.10;95.70;;;;;;5117051;28;20126;-24
2023/07/03 08:38:05;;;;;;;3.63;1.00;;;17.50;1.00;;;;;;5134380;28;20051;-24
2023/07/03 08:40:31;;;;;;;4.60;0.75;;;17.90;99.90;;;;;;5116334;28;20047;-24
2023/07/03 08:42:59;;;;;;;2.65;0.60;;;18.50;1.00;;;;;;5117133;28;20043;-24
2023/07/03 08:45:41;;;;;;;3.95;0.63;;;18.90;99.90;;;;;;5134382;28;20050;-24
2023/07/03 08:48:12;;;;;;;4.32;0.88;;;18.70;99.90;;;;;;5116124;28;20447;-24
2023/07/03 08:50:41;;;;;;;4.40;0.98;;;18.20;1.00;;;;;;5134350;28;20127;-24
2023/07/03 08:53:14;;;;;;;5.70;1.10;;;18.10;97.90;;;;;;5134275;28;20047;-24
2023/07/03 08:55:59;;;;;;;4.35;0.60;;;17.70;1.00;;;;;;5135129;28;20141;-24
2023/07/03 08:58:25;;;;;;;7.40;0.90;;;17.00;99.90;;;;;;5134863;28;20035;-23
2023/07/03 09:01:25;;;;;;;5.65;0.90;;;16.60;99.90;;;;;;5134764;28;20122;-24
2023/07/03 09:03:59;;;;;;;4.22;0.98;;;16.40;1.00;;;;;;5134224;28;20051;-24
2023/07/03 09:06:36;;;;;;;4.22;0.60;;;16.30;99.90;;;;;;5134616;28;20050;-24
2023/07/03 09:09:30;;;;;;;3.75;1.08;;;16.40;99.90;;;;;;5134232;28;20481;-23
2023/07/03 09:12:04;;;;;;;4.60;0.95;;;16.80;1.00;;;;;;5134472;28;20449;-24
2023/07/03 09:14:37;;;;;;;9.63;1.48;;;16.80;1.00;;;;;;5134092;28;20051;-24
2023/07/03 09:17:07;;;;;;;;;;;16.80;1.00;;;;;;5134517;28;20050;-24
2023/07/03 09:19:33;;;;;;;7.93;1.33;;;16.90;99.90;;;;;;5134608;28;20284;-24
2023/07/03 09:22:03;;;;;;;4.75;1.20;;;17.10;99.90;;;;;;5133993;28;20051;-24
2023/07/03 09:24:39;;;;;;;4.88;0.95;;;17.40;99.90;;;;;;5135798;27;20072;-24
2023/07/03 09:27:24;;;;;;;4.70;1.40;;;17.90;99.90;;;;;;5137975;27;20438;-24
2023/07/03 09:29:50;;;;;;;7.47;1.05;;;18.50;99.90;;;;;;5138224;27;20043;-24
2023/07/03 09:32:28;;;;;;;7.45;1.30;;;18.50;1.00;;;;;;5119127;27;20082;-24
2023/07/03 09:35:19;;;;;;;8.88;1.33;;;18.20;1.00;;;;;;5137094;27;20446;-25
2023/07/03 09:38:09;;;;;;;4.25;0.88;;;17.90;99.90;;;;;;5120267;27;20078;-24
2023/07/03 09:40:37;;;;;;;7.85;1.10;;;17.60;99.90;;;;;;5119140;27;20058;-24
2023/07/03 09:43:11;;;;;;;6.15;1.15;;;17.30;1.00;;;;;;5138120;27;20047;-25
2023/07/03 09:45:37;;;;;;;7.00;1.17;;;17.10;1.00;;;;;;5137906;27;20413;-24
2023/07/03 09:48:22;;;;;;;6.75;1.35;;;17.00;99.90;;;;;;5137232;27;20050;-26
2023/07/03 09:50:48;;;;;;;8.13;0.95;;;17.10;99.90;;;;;;5137218;27;20496;-24
2023/07/03 09:53:22;;;;;;;4.72;0.90;;;17.30;99.90;;;;;;5119013;27;20050;-25
2023/07/03 09:55:55;;;;;;;9.00;1.38;;;17.50;99.90;;;;;;5118806;27;20102;-24
2023/07/03 09:58:24;;;;;;;7.80;2.03;;;17.50;97.90;;;;;;5119077;27;20107;-24
2023/07/03 10:00:54;;;;;;;3.95;0.88;;;17.40;38.60;;;;;;5137851;27;20069;-24
2023/07/03 10:03:35;;;;;;;7.43;0.85;;;17.60;99.90;;;;;;5136932;27;20043;-24
2023/07/03 10:06:14;;;;;;;5.10;0.93;;;17.40;1.00;;;;;;5138124;27;20050;-24
2023/07/03 10:09:02;;;;;;;8.80;1.20;;;17.30;99.90;;;;;;5119634;27;20055;-24
2023/07/03 10:11:53;;;;;;;6.18;1.25;;;17.10;98.90;;;;;;5137396;27;20046;-24
2023/07/03 10:14:24;;;;;;;7.40;1.30;;;17.10;99.90;;;;;;5136709;27;20039;-24
2023/07/03 10:16:51;;;;;;;8.00;1.00;;;17.10;99.90;;;;;;5119035;27;20077;-24
2023/07/03 10:19:21;;;;;;;6.90;1.10;;;17.30;1.00;;;;;;5136661;27;20047;-24
2023/07/03 10:21:47;;;;;;;3.70;1.00;;;17.40;1.00;;;;;;5137464;27;20050;-24
2023/07/03 10:24:14;;;;;;;5.45;1.30;;;17.70;1.00;;;;;;5119275;27;20039;-24
2023/07/03 10:26:47;;;;;;;5.13;1.15;;;18.40;99.90;;;;;;5136485;27;20116;-24
2023/07/03 10:29:24;;;;;;;8.40;1.55;;;18.90;99.90;;;;;;5136486;27;20043;-24
2023/07/03 10:31:59;;;;;;;6.07;0.82;;;18.50;1.00;;;;;;5119106;27;20047;-24
2023/07/03 10:34:49;;;;;;;4.88;1.30;;;18.50;1.00;;;;;;5118552;27;20047;-24
2023/07/03 10:37:18;;;;;;;3.15;0.70;;;18.10;99.90;;;;;;5135327;27;20477;-24
2023/07/03 10:39:48;;;;;;;4.80;1.05;;;17.40;1.00;;;;;;5137078;27;20043;-24
2023/07/03 10:42:29;;;;;;;5.70;1.08;;;16.90;99.90;;;;;;5136511;27;20043;-24
2023/07/03 10:45:12;;;;;;;6.95;1.25;;;16.80;99.90;;;;;;5136460;27;20540;-24
2023/07/03 10:47:58;;;;;;;6.10;0.90;;;16.70;99.90;;;;;;5136089;27;20455;-24
2023/07/03 10:50:37;;;;;;;3.88;0.73;;;16.70;99.90;;;;;;5117187;27;20062;-24
2023/07/03 10:53:24;;;;;;;6.05;1.00;;;17.20;1.00;;;;;;5118211;27;20051;-24
2023/07/03 10:56:10;;;;;;;9.63;1.00;;;17.80;1.00;;;;;;5135870;27;20130;-25
2023/07/03 10:58:54;;;;;;;4.38;1.23;;;18.70;1.00;;;;;;5136461;27;20043;-24
2023/07/03 11:01:32;;;;;;;7.18;1.20;;;18.90;99.90;;;;;;5136421;27;20115;-24
2023/07/03 11:04:14;;;;;;;5.03;0.80;;;19.10;1.00;;;;;;5136377;27;20051;-24
2023/07/03 11:06:49;;;;;;;4.53;0.93;;;19.10;99.90;;;;;;5135800;27;20053;-25
2023/07/03 11:09:28;;;;;;;7.78;1.15;;;19.00;99.90;;;;;;5135648;27;20051;-24
2023/07/03 11:12:08;;;;;;;3.78;0.80;;;19.00;99.90;;;;;;5135912;27;20442;-25
2023/07/03 11:14:55;;;;;;;3.90;0.80;;;18.90;99.90;;;;;;5135576;27;20130;-24
2023/07/03 11:17:27;;;;;;;5.05;0.95;;;18.70;99.90;;;;;;5118298;27;20465;-24
2023/07/03 11:20:02;;;;;;;5.18;0.90;;;18.50;99.90;;;;;;5135782;27;20043;-24
2023/07/03 11:22:37;;;;;;;3.13;1.20;;;18.20;1.00;;;;;;5136041;27;20380;-24
2023/07/03 11:25:17;;;;;;;3.58;1.00;;;18.00;1.00;;;;;;5136236;27;20054;-24
2023/07/03 11:28:04;;;;;;;6.28;1.58;;;17.70;1.00;;;;;;5117738;27;20137;-24
2023/07/03 11:30:31;;;;;;;2.92;0.93;;;17.60;1.00;;;;;;5117432;27;20155;-24
2023/07/03 11:33:00;;;;;;;4.90;0.73;;;17.40;99.90;;;;;;5135179;27;20049;-24
2023/07/03 11:35:26;;;;;;;5.60;1.08;;;17.30;99.90;;;;;;5117252;27;20040;-24
2023/07/03 11:38:04;;;;;;;4.35;1.45;;;17.40;88.30;;;;;;5135706;27;20058;-24
2023/07/03 11:40:33;;;;;;;4.03;1.45;;;17.30;1.00;;;;;;5135160;27;20044;-24
2023/07/03 11:43:36;;;;;;;7.15;1.17;;;17.30;1.00;;;;;;5117253;27;20057;-24
2023/07/03 11:46:18;;;;;;;4.05;1.13;;;17.30;1.00;;;;;;5134747;27;20510;-24
2023/07/03 11:48:48;;;;;;;4.80;0.75;;;17.10;1.00;;;;;;5134310;27;20047;-23
2023/07/03 11:51:16;;;;;;;6.85;1.00;;;17.10;1.00;;;;;;5117297;27;20051;-24
2023/07/03 11:53:47;;;;;;;3.70;1.23;;;17.50;99.90;;;;;;5134950;27;20039;-24
2023/07/03 11:56:36;;;;;;;3.17;0.75;;;17.60;99.90;;;;;;5117068;27;20039;-24
2023/07/03 11:59:24;;;;;;;4.50;0.95;;;17.60;1.00;;;;;;5134618;27;20531;-24
2023/07/03 12:02:14;;;;;;;6.28;0.90;;;17.80;1.00;;;;;;5135184;27;20516;-24
2023/07/03 12:04:43;;;;;;;5.82;1.08;;;17.60;99.90;;;;;;5096252;27;20058;-24
2023/07/03 12:07:23;;;;;;;5.25;1.00;;;17.50;99.90;;;;;;5134720;27;20047;-24
2023/07/03 12:09:50;;;;;;;9.15;0.85;;;17.50;1.00;;;;;;5099678;28;20095;-24
2023/07/03 12:12:18;;;;;;;5.32;0.77;;;17.50;1.00;;;;;;5099243;28;20115;-24
2023/07/03 12:14:54;;;;;;;3.80;0.70;;;17.60;99.90;;;;;;5117339;28;20372;-24
2023/07/03 12:17:26;;;;;;;3.92;0.57;;;17.50;1.00;;;;;;5116986;28;20054;-24
2023/07/03 12:19:57;;;;;;;4.03;0.90;;;17.40;99.90;;;;;;5116510;28;20105;-24
2023/07/03 12:22:27;;;;;;;5.43;1.10;;;17.10;99.90;;;;;;5116976;28;20130;-24
2023/07/03 12:25:05;;;;;;;6.07;0.90;;;16.90;1.00;;;;;;5116453;28;20537;-24
2023/07/03 12:27:31;;;;;;;6.65;0.90;;;16.80;1.00;;;;;;5134659;28;20047;-24
2023/07/03 12:29:57;;;;;;;3.70;0.80;;;16.80;99.90;;;;;;5135107;28;20055;-24
2023/07/03 12:32:31;;;;;;;3.13;0.80;;;16.90;35.00;;;;;;5134107;28;20136;-24
2023/07/03 12:35:16;;;;;;;4.97;1.08;;;17.10;1.00;;;;;;5134442;28;20050;-24
2023/07/03 12:37:51;;;;;;;4.10;1.02;;;17.30;99.90;;;;;;5135263;28;20057;-24
2023/07/03 12:40:19;;;;;;;5.15;0.90;;;17.30;99.90;;;;;;5116534;28;20042;-24
2023/07/03 12:42:50;;;;;;;7.88;1.52;;;17.20;38.90;;;;;;5100112;28;20111;-25
2023/07/03 12:45:30;;;;;;;6.15;1.25;;;17.30;99.90;;;;;;5134388;28;20485;-24
2023/07/03 12:48:11;;;;;;;5.15;1.17;;;17.70;99.90;;;;;;5116552;28;20586;-24
2023/07/03 12:50:52;;;;;;;3.40;0.80;;;18.10;99.90;;;;;;5134930;28;20046;-24
2023/07/03 12:53:18;;;;;;;4.00;0.85;;;18.10;99.90;;;;;;5134332;28;20047;-25
2023/07/03 12:56:02;;;;;;;6.28;0.98;;;18.30;99.90;;;;;;5134165;28;20476;-24
2023/07/03 12:58:31;;;;;;;1.48;0.50;;;18.30;99.90;;;;;;5134374;27;20047;-25
2023/07/03 13:01:08;;;;;;;4.43;0.80;;;18.40;1.00;;;;;;5137991;27;20047;-24
2023/07/03 13:03:44;;;;;;;5.72;1.02;;;18.40;1.00;;;;;;5138758;27;20047;-24
2023/07/03 13:06:14;;;;;;;7.15;0.98;;;18.10;1.00;;;;;;5138117;27;20465;-25